sensor_id;sensor_type;location;lat;lon;timestamp;pressure;altitude;pressure_sealevel;temperature;humidity
15444;BME280;7822;48.146;11.576;2023-05-14T01:44:20;94985.25;;;16.01;75.43
15444;BME280;7822;48.146;11.576;2023-05-14T01:51:41;94979.00;;;16.02;75.27
15444;BME280;7822;48.146;11.576;2023-05-14T01:55:38;94969.53;;;16.01;75.26
15444;BME280;7822;48.146;11.576;2023-05-14T02:36:14;94966.91;;;16.01;75.40
15444;BME280;7822;48.146;11.576;2023-05-14T02:38:41;94965.91;;;16.02;75.29
15444;BME280;7822;48.146;11.576;2023-05-14T02:41:09;94960.84;;;16.00;75.29
15444;BME280;7822;48.146;11.576;2023-05-14T02:43:37;94966.09;;;16.00;75.16
15444;BME280;7822;48.146;11.576;2023-05-14T02:46:04;94959.91;;;16.01;75.43
15444;BME280;7822;48.146;11.576;2023-05-14T02:48:32;94966.09;;;16.00;75.16
15444;BME280;7822;48.146;11.576;2023-05-14T02:51:01;94958.25;;;16.00;75.45
15444;BME280;7822;48.146;11.576;2023-05-14T02:53:30;94956.44;;;16.01;75.15
15444;BME280;7822;48.146;11.576;2023-05-14T02:55:58;94957.28;;;16.01;75.28
15444;BME280;7822;48.146;11.576;2023-05-14T02:58:27;94944.34;;;16.00;75.16
15444;BME280;7822;48.146;11.576;2023-05-14T03:00:54;94945.16;;;16.00;75.36
15444;BME280;7822;48.146;11.576;2023-05-14T03:03:23;94953.84;;;16.01;75.15
15444;BME280;7822;48.146;11.576;2023-05-14T03:05:51;94955.63;;;16.00;75.21
15444;BME280;7822;48.146;11.576;2023-05-14T03:08:18;94950.41;;;16.00;75.16
15444;BME280;7822;48.146;11.576;2023-05-14T03:10:47;94946.00;;;16.01;75.18
15444;BME280;7822;48.146;11.576;2023-05-14T03:13:15;94953.00;;;16.00;75.09
15444;BME280;7822;48.146;11.576;2023-05-14T03:15:45;94946.97;;;16.00;75.24
15444;BME280;7822;48.146;11.576;2023-05-14T03:18:14;94947.78;;;16.00;75.06
15444;BME280;7822;48.146;11.576;2023-05-14T03:20:41;94943.53;;;15.99;75.09
15444;BME280;7822;48.146;11.576;2023-05-14T03:23:09;94942.53;;;16.00;75.41
15444;BME280;7822;48.146;11.576;2023-05-14T03:25:37;94943.38;;;16.01;75.37
15444;BME280;7822;48.146;11.576;2023-05-14T03:28:06;94940.75;;;16.01;75.41
15444;BME280;7822;48.146;11.576;2023-05-14T03:30:34;94938.13;;;16.01;75.14
15444;BME280;7822;48.146;11.576;2023-05-14T03:33:02;94931.91;;;16.02;75.24
15444;BME280;7822;48.146;11.576;2023-05-14T03:35:29;94936.34;;;16.01;75.16
15444;BME280;7822;48.146;11.576;2023-05-14T03:37:57;94944.19;;;16.01;75.04
15444;BME280;7822;48.146;11.576;2023-05-14T03:40:25;94941.59;;;16.01;74.97
15444;BME280;7822;48.146;11.576;2023-05-14T03:42:53;94935.53;;;16.01;75.25
15444;BME280;7822;48.146;11.576;2023-05-14T03:45:22;94936.34;;;16.01;75.08
15444;BME280;7822;48.146;11.576;2023-05-14T03:47:50;94941.59;;;16.01;75.21
15444;BME280;7822;48.146;11.576;2023-05-14T03:50:18;94935.53;;;16.01;75.03
15444;BME280;7822;48.146;11.576;2023-05-14T03:52:46;94933.72;;;16.01;75.02
15444;BME280;7822;48.146;11.576;2023-05-14T03:55:13;94940.59;;;16.02;75.06
15444;BME280;7822;48.146;11.576;2023-05-14T03:57:41;94937.13;;;16.02;75.18
15444;BME280;7822;48.146;11.576;2023-05-14T04:00:10;94941.59;;;16.01;75.27
15444;BME280;7822;48.146;11.576;2023-05-14T04:02:39;94937.31;;;16.00;75.33
15444;BME280;7822;48.146;11.576;2023-05-14T04:05:07;94934.69;;;16.00;75.12
15444;BME280;7822;48.146;11.576;2023-05-14T04:07:35;94935.53;;;16.01;75.29
15444;BME280;7822;48.146;11.576;2023-05-14T04:10:03;94927.66;;;16.01;75.30
15444;BME280;7822;48.146;11.576;2023-05-14T04:12:31;94934.53;;;16.02;75.27
15444;BME280;7822;48.146;11.576;2023-05-14T04:14:58;94943.19;;;16.02;75.19
15444;BME280;7822;48.146;11.576;2023-05-14T04:17:26;94934.53;;;16.02;75.18
15444;BME280;7822;48.146;11.576;2023-05-14T04:19:55;94934.53;;;16.02;75.27
15444;BME280;7822;48.146;11.576;2023-05-14T04:22:23;94929.28;;;16.02;75.11
15444;BME280;7822;48.146;11.576;2023-05-14T04:24:50;94930.94;;;16.03;75.31
15444;BME280;7822;48.146;11.576;2023-05-14T04:27:19;94937.00;;;16.03;75.03
15444;BME280;7822;48.146;11.576;2023-05-14T04:29:48;94930.94;;;16.03;75.21
15444;BME280;7822;48.146;11.576;2023-05-14T04:32:15;94936.19;;;16.03;75.34
15444;BME280;7822;48.146;11.576;2023-05-14T04:34:43;94939.63;;;16.03;75.14
15444;BME280;7822;48.146;11.576;2023-05-14T04:37:13;94942.22;;;16.03;75.40
15444;BME280;7822;48.146;11.576;2023-05-14T04:39:41;94941.41;;;16.03;75.23
15444;BME280;7822;48.146;11.576;2023-05-14T04:42:08;94944.03;;;16.03;75.15
15444;BME280;7822;48.146;11.576;2023-05-14T04:44:36;94946.63;;;16.03;75.25
15444;BME280;7822;48.146;11.576;2023-05-14T04:47:04;94948.25;;;16.04;75.19
15444;BME280;7822;48.146;11.576;2023-05-14T04:49:32;94946.47;;;16.04;75.33
15444;BME280;7822;48.146;11.576;2023-05-14T04:52:00;94942.88;;;16.05;75.30
15444;BME280;7822;48.146;11.576;2023-05-14T04:54:29;94945.66;;;16.04;75.13
15444;BME280;7822;48.146;11.576;2023-05-14T04:56:56;94945.66;;;16.04;75.23
15444;BME280;7822;48.146;11.576;2023-05-14T04:59:28;94945.50;;;16.05;75.33
15444;BME280;7822;48.146;11.576;2023-05-14T05:01:56;94947.28;;;16.05;75.31
15444;BME280;7822;48.146;11.576;2023-05-14T05:04:24;94938.63;;;16.04;75.33
15444;BME280;7822;48.146;11.576;2023-05-14T05:06:51;94945.50;;;16.05;75.30
15444;BME280;7822;48.146;11.576;2023-05-14T05:09:19;94940.28;;;16.05;75.23
15444;BME280;7822;48.146;11.576;2023-05-14T05:11:48;94954.19;;;16.06;75.20
15444;BME280;7822;48.146;11.576;2023-05-14T05:14:16;94949.91;;;16.05;75.12
15444;BME280;7822;48.146;11.576;2023-05-14T05:16:43;94945.50;;;16.05;75.23
15444;BME280;7822;48.146;11.576;2023-05-14T05:19:11;94950.75;;;16.05;75.31
15444;BME280;7822;48.146;11.576;2023-05-14T05:21:39;94947.13;;;16.06;75.06
15444;BME280;7822;48.146;11.576;2023-05-14T05:24:07;94954.97;;;16.06;75.10
15444;BME280;7822;48.146;11.576;2023-05-14T05:26:34;94954.19;;;16.06;75.21
15444;BME280;7822;48.146;11.576;2023-05-14T05:29:04;94947.28;;;16.05;75.37
15444;BME280;7822;48.146;11.576;2023-05-14T05:31:32;94951.56;;;16.06;75.07
15444;BME280;7822;48.146;11.576;2023-05-14T05:34:00;94954.97;;;16.06;75.04
15444;BME280;7822;48.146;11.576;2023-05-14T05:36:28;94951.56;;;16.06;75.05
15444;BME280;7822;48.146;11.576;2023-05-14T05:38:55;94953.34;;;16.05;75.11
15444;BME280;7822;48.146;11.576;2023-05-14T05:41:23;94949.91;;;16.05;75.20
15444;BME280;7822;48.146;11.576;2023-05-14T05:43:51;94947.28;;;16.05;75.13
15444;BME280;7822;48.146;11.576;2023-05-14T05:46:20;94949.91;;;16.05;75.12
15444;BME280;7822;48.146;11.576;2023-05-14T05:48:48;94947.28;;;16.05;75.19
15444;BME280;7822;48.146;11.576;2023-05-14T05:51:16;94947.28;;;16.05;75.04
15444;BME280;7822;48.146;11.576;2023-05-14T05:53:43;94954.19;;;16.06;75.11
15444;BME280;7822;48.146;11.576;2023-05-14T05:56:11;94945.50;;;16.05;75.30
15444;BME280;7822;48.146;11.576;2023-05-14T05:58:39;94955.16;;;16.05;75.19
15444;BME280;7822;48.146;11.576;2023-05-14T06:01:07;94950.75;;;16.05;74.81
15444;BME280;7822;48.146;11.576;2023-05-14T06:03:36;94952.69;;;16.19;75.31
15444;BME280;7822;48.146;11.576;2023-05-14T06:06:03;94952.72;;;16.27;73.94
15444;BME280;7822;48.146;11.576;2023-05-14T06:08:31;94944.19;;;16.25;72.37
15444;BME280;7822;48.146;11.576;2023-05-14T06:10:59;94954.81;;;16.16;70.99
15444;BME280;7822;48.146;11.576;2023-05-14T06:13:27;94956.28;;;16.10;70.54
15444;BME280;7822;48.146;11.576;2023-05-14T06:15:54;94954.97;;;16.06;70.75
15444;BME280;7822;48.146;11.576;2023-05-14T06:18:22;94953.50;;;16.04;71.09
15444;BME280;7822;48.146;11.576;2023-05-14T06:20:51;94951.88;;;16.03;71.15
15444;BME280;7822;48.146;11.576;2023-05-14T06:23:18;94945.34;;;15.99;71.08
15444;BME280;7822;48.146;11.576;2023-05-14T06:25:48;94941.41;;;15.95;70.94
15444;BME280;7822;48.146;11.576;2023-05-14T06:28:16;94951.19;;;15.93;70.79
15444;BME280;7822;48.146;11.576;2023-05-14T06:30:44;94952.19;;;15.92;70.71
15444;BME280;7822;48.146;11.576;2023-05-14T06:33:11;94949.56;;;15.92;70.88
15444;BME280;7822;48.146;11.576;2023-05-14T06:35:40;94955.78;;;15.91;70.77
15444;BME280;7822;48.146;11.576;2023-05-14T06:38:09;94953.97;;;15.91;71.41
15444;BME280;7822;48.146;11.576;2023-05-14T06:40:36;94948.75;;;15.91;71.48
15444;BME280;7822;48.146;11.576;2023-05-14T06:43:04;94945.16;;;15.92;71.64
15444;BME280;7822;48.146;11.576;2023-05-14T06:45:32;94953.00;;;15.92;71.36
15444;BME280;7822;48.146;11.576;2023-05-14T06:48:01;94941.72;;;15.92;71.62
15444;BME280;7822;48.146;11.576;2023-05-14T06:50:29;94947.91;;;15.91;71.40
15444;BME280;7822;48.146;11.576;2023-05-14T06:52:57;94946.13;;;15.91;71.44
15444;BME280;7822;48.146;11.576;2023-05-14T06:55:26;94953.97;;;15.91;71.24
15444;BME280;7822;48.146;11.576;2023-05-14T06:57:54;94953.97;;;15.91;71.48
15444;BME280;7822;48.146;11.576;2023-05-14T07:00:22;94958.38;;;15.91;71.20
15444;BME280;7822;48.146;11.576;2023-05-14T07:02:50;94956.78;;;15.90;70.79
15444;BME280;7822;48.146;11.576;2023-05-14T07:05:18;94958.38;;;15.91;70.91
15444;BME280;7822;48.146;11.576;2023-05-14T07:07:46;94953.97;;;15.91;71.24
15444;BME280;7822;48.146;11.576;2023-05-14T07:10:14;94949.56;;;15.92;71.29
15444;BME280;7822;48.146;11.576;2023-05-14T07:12:43;94944.34;;;15.92;71.17
15444;BME280;7822;48.146;11.576;2023-05-14T07:15:11;94933.22;;;15.90;70.64
15444;BME280;7822;48.146;11.576;2023-05-14T07:17:39;94921.28;;;15.87;70.41
15444;BME280;7822;48.146;11.576;2023-05-14T07:20:08;94915.22;;;15.87;70.37
15444;BME280;7822;48.146;11.576;2023-05-14T07:22:35;94920.44;;;15.87;70.18
15444;BME280;7822;48.146;11.576;2023-05-14T07:25:04;94913.59;;;15.86;70.34
15444;BME280;7822;48.146;11.576;2023-05-14T07:27:31;94911.13;;;15.84;70.52
15444;BME280;7822;48.146;11.576;2023-05-14T07:30:00;94914.41;;;15.86;70.54
15444;BME280;7822;48.146;11.576;2023-05-14T07:32:28;94922.09;;;15.88;70.56
15444;BME280;7822;48.146;11.576;2023-05-14T07:34:56;94920.63;;;15.85;70.17
15444;BME280;7822;48.146;11.576;2023-05-14T07:37:24;94924.06;;;15.86;69.86
15444;BME280;7822;48.146;11.576;2023-05-14T07:39:52;94923.25;;;15.85;70.06
15444;BME280;7822;48.146;11.576;2023-05-14T07:42:19;94918.19;;;15.84;70.08
15444;BME280;7822;48.146;11.576;2023-05-14T07:45:02;94917.53;;;15.82;70.20
15444;BME280;7822;48.146;11.576;2023-05-14T07:47:30;94904.44;;;15.82;70.22
15444;BME280;7822;48.146;11.576;2023-05-14T07:49:58;94915.88;;;15.81;70.03
15444;BME280;7822;48.146;11.576;2023-05-14T07:52:26;94911.78;;;15.78;69.79
15444;BME280;7822;48.146;11.576;2023-05-14T07:54:54;94901.50;;;15.77;69.92
15444;BME280;7822;48.146;11.576;2023-05-14T07:57:21;94905.06;;;15.76;70.13
15444;BME280;7822;48.146;11.576;2023-05-14T07:59:49;94905.91;;;15.76;70.04
15444;BME280;7822;48.146;11.576;2023-05-14T08:02:18;94904.25;;;15.75;70.10
15444;BME280;7822;48.146;11.576;2023-05-14T08:04:46;94897.56;;;15.73;70.03
15444;BME280;7822;48.146;11.576;2023-05-14T08:07:13;94896.91;;;15.71;70.17
15444;BME280;7822;48.146;11.576;2023-05-14T08:09:41;94900.50;;;15.70;70.32
15444;BME280;7822;48.146;11.576;2023-05-14T08:12:09;94906.56;;;15.70;70.54
15444;BME280;7822;48.146;11.576;2023-05-14T08:14:37;94911.44;;;15.73;70.36
15444;BME280;7822;48.146;11.576;2023-05-14T08:17:04;94909.66;;;15.74;70.19
15444;BME280;7822;48.146;11.576;2023-05-14T08:19:34;94906.38;;;15.72;70.40
15444;BME280;7822;48.146;11.576;2023-05-14T08:22:01;94911.44;;;15.73;70.45
15444;BME280;7822;48.146;11.576;2023-05-14T08:24:29;94915.06;;;15.72;70.43
15444;BME280;7822;48.146;11.576;2023-05-14T08:26:56;94910.00;;;15.71;70.11
15444;BME280;7822;48.146;11.576;2023-05-14T08:29:24;94918.63;;;15.71;70.57
15444;BME280;7822;48.146;11.576;2023-05-14T08:31:52;94916.84;;;15.72;70.42
15444;BME280;7822;48.146;11.576;2023-05-14T08:34:20;94910.66;;;15.73;70.50
15444;BME280;7822;48.146;11.576;2023-05-14T08:36:49;94920.28;;;15.72;70.61
15444;BME280;7822;48.146;11.576;2023-05-14T08:39:16;94908.03;;;15.73;70.78
15444;BME280;7822;48.146;11.576;2023-05-14T08:41:44;94919.28;;;15.73;71.02
15444;BME280;7822;48.146;11.576;2023-05-14T08:44:14;94919.28;;;15.73;70.93
15444;BME280;7822;48.146;11.576;2023-05-14T08:46:42;94906.38;;;15.72;70.65
15444;BME280;7822;48.146;11.576;2023-05-14T08:49:15;94901.31;;;15.70;70.75
15444;BME280;7822;48.146;11.576;2023-05-14T08:51:46;94917.00;;;15.70;70.74
15444;BME280;7822;48.146;11.576;2023-05-14T08:54:16;94901.81;;;15.66;70.20
15444;BME280;7822;48.146;11.576;2023-05-14T08:56:44;94907.69;;;15.68;70.54
15444;BME280;7822;48.146;11.576;2023-05-14T08:59:12;94905.91;;;15.68;70.42
15444;BME280;7822;48.146;11.576;2023-05-14T09:01:45;94904.09;;;15.69;70.67
15444;BME280;7822;48.146;11.576;2023-05-14T09:04:14;94888.38;;;15.69;70.61
15444;BME280;7822;48.146;11.576;2023-05-14T09:06:48;94904.09;;;15.69;70.43
15444;BME280;7822;48.146;11.576;2023-05-14T09:09:17;94912.09;;;15.67;70.63
15444;BME280;7822;48.146;11.576;2023-05-14T09:11:48;94901.97;;;15.64;70.64
15444;BME280;7822;48.146;11.576;2023-05-14T09:14:16;94894.44;;;15.61;70.16
15444;BME280;7822;48.146;11.576;2023-05-14T09:16:45;94889.38;;;15.60;70.37
15444;BME280;7822;48.146;11.576;2023-05-14T09:19:13;94897.38;;;15.58;70.08
15444;BME280;7822;48.146;11.576;2023-05-14T09:21:45;94896.53;;;15.57;70.30
15444;BME280;7822;48.146;11.576;2023-05-14T09:24:19;94892.97;;;15.58;70.36
15444;BME280;7822;48.146;11.576;2023-05-14T09:26:49;94897.53;;;15.56;70.27
15444;BME280;7822;48.146;11.576;2023-05-14T09:29:17;94898.50;;;15.55;70.46
15444;BME280;7822;48.146;11.576;2023-05-14T09:31:46;94902.13;;;15.54;70.11
15444;BME280;7822;48.146;11.576;2023-05-14T09:34:22;94892.47;;;15.55;70.43
15444;BME280;7822;48.146;11.576;2023-05-14T09:36:54;94896.88;;;15.54;70.17
15444;BME280;7822;48.146;11.576;2023-05-14T09:39:24;94902.13;;;15.54;70.12
15444;BME280;7822;48.146;11.576;2023-05-14T09:41:53;94903.72;;;15.55;70.37
15444;BME280;7822;48.146;11.576;2023-05-14T09:44:21;94909.78;;;15.56;70.50
15444;BME280;7822;48.146;11.576;2023-05-14T09:46:50;94903.59;;;15.57;70.27
15444;BME280;7822;48.146;11.576;2023-05-14T09:49:18;94900.16;;;15.56;70.53
15444;BME280;7822;48.146;11.576;2023-05-14T09:51:47;94897.38;;;15.58;70.33
15444;BME280;7822;48.146;11.576;2023-05-14T09:54:15;94889.53;;;15.58;70.22
15444;BME280;7822;48.146;11.576;2023-05-14T09:56:44;94897.38;;;15.58;70.28
15444;BME280;7822;48.146;11.576;2023-05-14T09:59:12;94889.53;;;15.58;70.21
15444;BME280;7822;48.146;11.576;2023-05-14T10:01:41;94897.38;;;15.58;70.42
15444;BME280;7822;48.146;11.576;2023-05-14T10:04:10;94889.53;;;15.58;70.53
15444;BME280;7822;48.146;11.576;2023-05-14T10:06:38;94901.13;;;15.55;70.23
15444;BME280;7822;48.146;11.576;2023-05-14T10:09:12;94895.88;;;15.55;70.21
15444;BME280;7822;48.146;11.576;2023-05-14T10:11:42;94900.31;;;15.55;69.93
15444;BME280;7822;48.146;11.576;2023-05-14T10:14:13;94896.06;;;15.54;69.88
15444;BME280;7822;48.146;11.576;2023-05-14T10:16:46;94905.56;;;15.55;70.08
15444;BME280;7822;48.146;11.576;2023-05-14T10:19:16;94906.22;;;15.57;70.19
15444;BME280;7822;48.146;11.576;2023-05-14T10:21:47;94901.13;;;15.55;70.16
15444;BME280;7822;48.146;11.576;2023-05-14T10:24:15;94897.72;;;15.55;70.01
15444;BME280;7822;48.146;11.576;2023-05-14T10:26:44;94897.19;;;15.51;69.99
15444;BME280;7822;48.146;11.576;2023-05-14T10:29:13;94900.81;;;15.50;70.03
15444;BME280;7822;48.146;11.576;2023-05-14T10:31:49;94902.44;;;15.51;69.97
15444;BME280;7822;48.146;11.576;2023-05-14T10:34:35;94901.59;;;15.51;69.82
15444;BME280;7822;48.146;11.576;2023-05-14T10:37:08;94895.56;;;15.50;69.58
15444;BME280;7822;48.146;11.576;2023-05-14T10:39:43;94905.03;;;15.51;69.65
15444;BME280;7822;48.146;11.576;2023-05-14T10:42:13;94906.81;;;15.51;69.63
15444;BME280;7822;48.146;11.576;2023-05-14T10:44:51;94899.16;;;15.49;69.28
15444;BME280;7822;48.146;11.576;2023-05-14T10:47:20;94897.38;;;15.50;69.22
15444;BME280;7822;48.146;11.576;2023-05-14T10:49:52;94900.81;;;15.50;69.42
15444;BME280;7822;48.146;11.576;2023-05-14T10:52:20;94898.97;;;15.51;69.47
15444;BME280;7822;48.146;11.576;2023-05-14T10:54:49;94896.38;;;15.51;69.29
15444;BME280;7822;48.146;11.576;2023-05-14T10:57:19;94888.38;;;15.52;69.52
15444;BME280;7822;48.146;11.576;2023-05-14T10:59:47;94889.22;;;15.53;70.14
15444;BME280;7822;48.146;11.576;2023-05-14T11:02:22;94891.16;;;15.51;69.66
15444;BME280;7822;48.146;11.576;2023-05-14T11:04:58;94889.34;;;15.51;69.44
15444;BME280;7822;48.146;11.576;2023-05-14T11:07:29;94885.91;;;15.51;69.39
15444;BME280;7822;48.146;11.576;2023-05-14T11:10:03;94879.06;;;15.50;69.38
15444;BME280;7822;48.146;11.576;2023-05-14T11:12:31;94884.28;;;15.50;69.52
15444;BME280;7822;48.146;11.576;2023-05-14T11:15:02;94875.63;;;15.49;69.80
15444;BME280;7822;48.146;11.576;2023-05-14T11:17:33;94884.28;;;15.50;69.41
15444;BME280;7822;48.146;11.576;2023-05-14T11:20:02;94880.69;;;15.51;69.12
15444;BME280;7822;48.146;11.576;2023-05-14T11:22:32;94870.22;;;15.51;69.44
15444;BME280;7822;48.146;11.576;2023-05-14T11:25:00;94868.44;;;15.51;69.67
15444;BME280;7822;48.146;11.576;2023-05-14T11:27:28;94865.16;;;15.49;69.49
15444;BME280;7822;48.146;11.576;2023-05-14T11:29:56;94864.53;;;15.47;69.18
15444;BME280;7822;48.146;11.576;2023-05-14T11:32:26;94858.47;;;15.47;69.26
15444;BME280;7822;48.146;11.576;2023-05-14T11:34:55;94859.47;;;15.46;69.25
15444;BME280;7822;48.146;11.576;2023-05-14T11:37:23;94873.19;;;15.48;69.20
15444;BME280;7822;48.146;11.576;2023-05-14T11:39:52;94869.44;;;15.50;69.59
15444;BME280;7822;48.146;11.576;2023-05-14T11:42:21;94863.22;;;15.51;69.55
15444;BME280;7822;48.146;11.576;2023-05-14T11:44:50;94862.56;;;15.49;69.07
15444;BME280;7822;48.146;11.576;2023-05-14T11:47:20;94854.88;;;15.48;69.00
15444;BME280;7822;48.146;11.576;2023-05-14T11:49:48;94858.31;;;15.48;68.90
15444;BME280;7822;48.146;11.576;2023-05-14T11:52:17;94859.28;;;15.47;68.55
15444;BME280;7822;48.146;11.576;2023-05-14T11:54:47;94854.06;;;15.47;68.37
15444;BME280;7822;48.146;11.576;2023-05-14T11:57:18;94850.47;;;15.48;68.40
15444;BME280;7822;48.146;11.576;2023-05-14T11:59:47;94845.25;;;15.48;68.46
15444;BME280;7822;48.146;11.576;2023-05-14T12:02:17;94840.81;;;15.49;68.58
15444;BME280;7822;48.146;11.576;2023-05-14T12:04:49;94836.41;;;15.49;68.54
15444;BME280;7822;48.146;11.576;2023-05-14T12:07:19;94835.44;;;15.50;68.66
15444;BME280;7822;48.146;11.576;2023-05-14T12:09:47;94828.56;;;15.49;68.76
15444;BME280;7822;48.146;11.576;2023-05-14T12:12:17;94830.38;;;15.49;68.61
15444;BME280;7822;48.146;11.576;2023-05-14T12:14:46;94824.34;;;15.48;67.97
15444;BME280;7822;48.146;11.576;2023-05-14T12:17:16;94825.47;;;15.46;67.54
15444;BME280;7822;48.146;11.576;2023-05-14T12:19:46;94811.59;;;15.45;67.69
15444;BME280;7822;48.146;11.576;2023-05-14T12:22:15;94811.75;;;15.44;67.68
15444;BME280;7822;48.146;11.576;2023-05-14T12:24:53;94816.97;;;15.44;67.54
15444;BME280;7822;48.146;11.576;2023-05-14T12:27:21;94813.38;;;15.45;67.34
15444;BME280;7822;48.146;11.576;2023-05-14T12:29:50;94813.38;;;15.45;67.18
15444;BME280;7822;48.146;11.576;2023-05-14T12:32:18;94811.59;;;15.45;66.74
15444;BME280;7822;48.146;11.576;2023-05-14T12:34:46;94800.16;;;15.46;67.18
15444;BME280;7822;48.146;11.576;2023-05-14T12:37:14;94800.31;;;15.45;67.16
15444;BME280;7822;48.146;11.576;2023-05-14T12:39:41;94795.06;;;15.45;66.32
15444;BME280;7822;48.146;11.576;2023-05-14T12:42:10;94787.41;;;15.43;66.73
15444;BME280;7822;48.146;11.576;2023-05-14T12:44:38;94785.72;;;15.42;66.72
15444;BME280;7822;48.146;11.576;2023-05-14T12:47:06;94780.50;;;15.42;66.53
15444;BME280;7822;48.146;11.576;2023-05-14T12:49:34;94776.94;;;15.43;66.81
15444;BME280;7822;48.146;11.576;2023-05-14T12:52:01;94772.38;;;15.45;66.92
15444;BME280;7822;48.146;11.576;2023-05-14T12:54:49;94775.00;;;15.45;67.28
15444;BME280;7822;48.146;11.576;2023-05-14T12:57:18;94783.66;;;15.46;67.18
15444;BME280;7822;48.146;11.576;2023-05-14T12:59:46;94764.53;;;15.45;67.03
15444;BME280;7822;48.146;11.576;2023-05-14T13:02:13;94768.63;;;15.48;67.42
15444;BME280;7822;48.146;11.576;2023-05-14T13:04:43;94769.44;;;15.48;67.36
15444;BME280;7822;48.146;11.576;2023-05-14T13:07:11;94762.56;;;15.47;66.91
15444;BME280;7822;48.146;11.576;2023-05-14T13:09:38;94766.00;;;15.48;66.78
15444;BME280;7822;48.146;11.576;2023-05-14T13:12:07;94758.00;;;15.49;67.47
15444;BME280;7822;48.146;11.576;2023-05-14T13:14:36;94755.53;;;15.56;67.93
15444;BME280;7822;48.146;11.576;2023-05-14T13:17:03;94755.22;;;15.59;67.62
15444;BME280;7822;48.146;11.576;2023-05-14T13:19:33;94750.63;;;15.61;67.95
15444;BME280;7822;48.146;11.576;2023-05-14T13:22:01;94740.81;;;15.63;67.84
15444;BME280;7822;48.146;11.576;2023-05-14T13:24:28;94740.00;;;15.63;68.11
15444;BME280;7822;48.146;11.576;2023-05-14T13:26:56;94738.03;;;15.65;67.71
15444;BME280;7822;48.146;11.576;2023-05-14T13:29:23;94733.63;;;15.65;68.15
15444;BME280;7822;48.146;11.576;2023-05-14T13:31:52;94734.47;;;15.66;67.99
15444;BME280;7822;48.146;11.576;2023-05-14T13:34:20;94728.22;;;15.67;68.03
15444;BME280;7822;48.146;11.576;2023-05-14T13:36:48;94730.53;;;15.70;68.21
15444;BME280;7822;48.146;11.576;2023-05-14T13:39:16;94721.72;;;15.71;68.20
15444;BME280;7822;48.146;11.576;2023-05-14T13:41:47;94729.56;;;15.71;68.34
15444;BME280;7822;48.146;11.576;2023-05-14T13:44:16;94725.13;;;15.71;68.09
15444;BME280;7822;48.146;11.576;2023-05-14T13:46:43;94719.88;;;15.71;68.35
15444;BME280;7822;48.146;11.576;2023-05-14T13:49:12;94718.91;;;15.72;68.30
15444;BME280;7822;48.146;11.576;2023-05-14T13:51:40;94721.34;;;15.74;68.46
15444;BME280;7822;48.146;11.576;2023-05-14T13:54:08;94712.53;;;15.75;68.34
15444;BME280;7822;48.146;11.576;2023-05-14T13:56:35;94711.41;;;15.77;68.44
15444;BME280;7822;48.146;11.576;2023-05-14T13:59:03;94704.34;;;15.78;68.62
15444;BME280;7822;48.146;11.576;2023-05-14T14:01:31;94711.03;;;15.80;68.46
15444;BME280;7822;48.146;11.576;2023-05-14T14:03:59;94694.38;;;15.81;68.66
15444;BME280;7822;48.146;11.576;2023-05-14T14:06:29;94693.56;;;15.81;68.38
15444;BME280;7822;48.146;11.576;2023-05-14T14:08:57;94689.97;;;15.82;68.58
15444;BME280;7822;48.146;11.576;2023-05-14T14:11:25;94695.22;;;15.82;68.57
15444;BME280;7822;48.146;11.576;2023-05-14T14:13:53;94689.81;;;15.83;68.65
15444;BME280;7822;48.146;11.576;2023-05-14T14:16:20;94688.97;;;15.83;68.52
15444;BME280;7822;48.146;11.576;2023-05-14T14:18:48;94679.34;;;15.83;68.83
15444;BME280;7822;48.146;11.576;2023-05-14T14:21:16;94681.13;;;15.83;68.63
15444;BME280;7822;48.146;11.576;2023-05-14T14:23:47;94676.91;;;15.82;68.34
15444;BME280;7822;48.146;11.576;2023-05-14T14:26:15;94670.03;;;15.81;68.47
15444;BME280;7822;48.146;11.576;2023-05-14T14:28:42;94673.47;;;15.81;68.48
15444;BME280;7822;48.146;11.576;2023-05-14T14:31:10;94662.28;;;15.95;70.77
15444;BME280;7822;48.146;11.576;2023-05-14T14:33:38;94658.88;;;15.95;70.55
15444;BME280;7822;48.146;11.576;2023-05-14T14:36:06;94658.88;;;15.95;70.46
15444;BME280;7822;48.146;11.576;2023-05-14T14:38:34;94655.56;;;15.93;70.25
15444;BME280;7822;48.146;11.576;2023-05-14T14:41:03;94645.47;;;15.90;69.43
15444;BME280;7822;48.146;11.576;2023-05-14T14:43:32;94651.69;;;15.89;69.74
15444;BME280;7822;48.146;11.576;2023-05-14T14:46:00;94644.00;;;15.87;69.49
15444;BME280;7822;48.146;11.576;2023-05-14T14:48:29;94649.66;;;16.07;69.54
15444;BME280;7822;48.146;11.576;2023-05-14T14:50:59;94646.34;;;16.21;67.80
15444;BME280;7822;48.146;11.576;2023-05-14T14:53:28;94644.16;;;16.24;68.35
15444;BME280;7822;48.146;11.576;2023-05-14T14:55:56;94645.69;;;16.19;67.86
15444;BME280;7822;48.146;11.576;2023-05-14T14:58:25;94653.22;;;16.14;68.39
15444;BME280;7822;48.146;11.576;2023-05-14T15:00:54;94650.94;;;16.11;68.87
15444;BME280;7822;48.146;11.576;2023-05-14T15:03:23;94654.88;;;16.07;69.05
15444;BME280;7822;48.146;11.576;2023-05-14T15:05:51;94649.97;;;16.04;68.88
15444;BME280;7822;48.146;11.576;2023-05-14T15:08:23;94649.34;;;16.02;68.96
15444;BME280;7822;48.146;11.576;2023-05-14T15:10:51;94645.09;;;16.01;68.45
15444;BME280;7822;48.146;11.576;2023-05-14T15:13:18;94649.50;;;16.00;68.57
15444;BME280;7822;48.146;11.576;2023-05-14T15:15:49;94646.25;;;15.98;68.43
15444;BME280;7822;48.146;11.576;2023-05-14T15:18:17;94644.47;;;15.99;68.48
15444;BME280;7822;48.146;11.576;2023-05-14T15:20:45;94634.97;;;15.98;68.35
15444;BME280;7822;48.146;11.576;2023-05-14T15:23:13;94645.63;;;15.96;68.36
15444;BME280;7822;48.146;11.576;2023-05-14T15:25:40;94640.19;;;15.98;68.77
15444;BME280;7822;48.146;11.576;2023-05-14T15:28:08;94641.19;;;15.97;68.67
15444;BME280;7822;48.146;11.576;2023-05-14T15:30:36;94641.34;;;15.95;68.78
15444;BME280;7822;48.146;11.576;2023-05-14T15:33:06;94639.56;;;15.96;68.73
15444;BME280;7822;48.146;11.576;2023-05-14T15:35:34;94638.72;;;15.95;68.84